createdAt,value
2022-10-11T00:01:39.303Z,7.10
2022-10-11T00:04:09.805Z,5.50
2022-10-11T00:06:43.650Z,8.00
2022-10-11T00:09:16.180Z,5.30
2022-10-11T00:11:45.392Z,7.60
2022-10-11T00:14:34.573Z,5.40
2022-10-11T00:17:02.332Z,4.50
2022-10-11T00:19:53.015Z,5.40
2022-10-11T00:22:49.613Z,5.00
2022-10-11T00:25:37.687Z,7.10
2022-10-11T00:28:24.040Z,5.20
2022-10-11T00:31:16.328Z,5.20
2022-10-11T00:34:05.148Z,7.40
2022-10-11T00:36:51.493Z,7.00
2022-10-11T00:39:38.537Z,5.30
2022-10-11T00:42:29.290Z,6.80
2022-10-11T00:45:27.529Z,6.40
2022-10-11T00:48:22.983Z,6.80
2022-10-11T00:51:41.251Z,6.10
2022-10-11T00:54:31.467Z,4.90
2022-10-11T00:57:21.974Z,4.90
2022-10-11T01:00:13.289Z,5.70
2022-10-11T01:03:02.054Z,5.00
2022-10-11T01:05:50.871Z,4.90
2022-10-11T01:08:39.574Z,5.00
2022-10-11T01:11:29.249Z,3.70
2022-10-11T01:14:36.411Z,6.20
2022-10-11T01:17:38.311Z,4.80
2022-10-11T01:20:36.536Z,5.80
2022-10-11T01:23:31.439Z,4.80
2022-10-11T01:26:20.162Z,4.70
2022-10-11T01:29:19.821Z,6.70
2022-10-11T01:32:17.056Z,4.70
2022-10-11T01:35:27.005Z,5.50
2022-10-11T01:38:33.316Z,6.80
2022-10-11T01:41:25.776Z,5.70
2022-10-11T01:44:13.613Z,4.60
2022-10-11T01:47:00.042Z,3.60
2022-10-11T01:49:57.213Z,4.80
2022-10-11T01:52:48.073Z,4.50
2022-10-11T01:56:07.026Z,4.50
2022-10-11T01:59:19.615Z,6.70
2022-10-11T02:02:11.968Z,4.40
2022-10-11T02:05:22.053Z,4.90
2022-10-11T02:08:17.197Z,4.30
2022-10-11T02:11:13.633Z,4.60
2022-10-11T02:14:15.529Z,4.40
2022-10-11T02:17:07.826Z,5.40
2022-10-11T02:19:57.095Z,5.70
2022-10-11T02:22:46.932Z,5.20
2022-10-11T02:25:37.030Z,6.10
2022-10-11T02:28:33.866Z,6.40
2022-10-11T02:31:22.053Z,4.40
2022-10-11T02:34:35.147Z,4.20
2022-10-11T02:37:32.513Z,4.30
2022-10-11T02:40:29.211Z,4.20
2022-10-11T02:43:36.596Z,4.10
2022-10-11T02:46:23.596Z,4.10
2022-10-11T02:49:13.532Z,5.20
2022-10-11T02:52:01.309Z,5.40
2022-10-11T02:54:47.294Z,5.90
2022-10-11T02:57:36.017Z,4.10
2022-10-11T03:00:22.439Z,6.20
2022-10-11T03:03:08.430Z,4.80
2022-10-11T03:06:02.192Z,6.10
2022-10-11T03:08:48.857Z,2.80
2022-10-11T03:11:37.755Z,5.80
2022-10-11T03:14:24.348Z,3.70
2022-10-11T03:17:35.724Z,5.30
2022-10-11T03:20:22.213Z,4.10
2022-10-11T03:23:08.851Z,4.90
2022-10-11T03:25:55.026Z,3.00
2022-10-11T03:28:40.980Z,5.50
2022-10-11T03:31:27.497Z,5.10
2022-10-11T03:34:14.408Z,4.80
2022-10-11T03:37:00.776Z,5.70
2022-10-11T03:39:47.410Z,5.60
2022-10-11T03:42:33.696Z,3.90
2022-10-11T03:45:20.015Z,5.30
2022-10-11T03:48:06.376Z,5.30
2022-10-11T03:50:52.593Z,3.80
2022-10-11T03:53:41.809Z,5.10
2022-10-11T03:56:27.951Z,3.80
2022-10-11T03:59:14.124Z,4.90
2022-10-11T04:02:00.317Z,4.50
2022-10-11T04:04:49.131Z,5.40
2022-10-11T04:07:35.533Z,5.60
2022-10-11T04:10:25.569Z,5.80
2022-10-11T04:13:12.274Z,2.80
2022-10-11T04:15:58.772Z,5.10
2022-10-11T04:18:44.862Z,5.10
2022-10-11T04:21:33.492Z,5.00
2022-10-11T04:24:19.731Z,5.50
2022-10-11T04:27:07.415Z,4.80
2022-10-11T04:29:54.349Z,4.60
2022-10-11T04:32:40.835Z,5.50
2022-10-11T04:35:27.210Z,4.90
2022-10-11T04:38:13.692Z,3.70
2022-10-11T04:41:08.100Z,4.60
2022-10-11T04:43:55.943Z,3.70
2022-10-11T04:46:42.492Z,3.70
2022-10-11T04:49:28.353Z,3.70
2022-10-11T04:52:25.499Z,5.20
2022-10-11T04:55:12.362Z,6.00
2022-10-11T04:57:58.561Z,4.40
2022-10-11T05:00:47.007Z,5.40
2022-10-11T05:03:35.556Z,5.60
2022-10-11T05:10:22.271Z,4.90
2022-10-11T05:17:49.599Z,3.60
2022-10-11T05:24:21.151Z,3.00
2022-10-11T05:31:11.573Z,2.20
2022-10-11T05:39:20.543Z,2.60
2022-10-11T05:50:02.360Z,5.60
2022-10-11T05:57:45.321Z,3.20
2022-10-11T06:00:43.070Z,4.80
2022-10-11T06:07:18.377Z,2.20
2022-10-11T06:10:06.134Z,5.10
2022-10-11T06:13:26.271Z,3.60
2022-10-11T06:16:52.976Z,2.60
2022-10-11T06:20:12.554Z,3.50
2022-10-11T06:23:02.727Z,2.10
2022-10-11T06:26:10.482Z,4.40
2022-10-11T06:40:01.474Z,5.80
2022-10-11T06:43:03.068Z,4.30
2022-10-11T06:46:00.279Z,5.60
2022-10-11T06:48:51.685Z,5.40
2022-10-11T06:51:37.755Z,1.90
2022-10-11T06:57:52.133Z,3.70
2022-10-11T07:01:50.619Z,2.30
2022-10-11T07:27:04.114Z,4.10
2022-10-11T07:49:59.871Z,5.20
2022-10-11T08:13:51.088Z,6.90
2022-10-11T08:20:37.286Z,7.40
2022-10-11T08:24:38.861Z,3.50
2022-10-11T08:27:32.041Z,7.30
2022-10-11T08:30:21.690Z,8.10
2022-10-11T09:01:36.859Z,6.70
2022-10-11T09:04:29.159Z,8.70
2022-10-11T09:08:41.479Z,6.90
2022-10-11T09:17:02.101Z,7.30
2022-10-11T09:20:46.176Z,7.40
2022-10-11T09:28:38.590Z,7.70
2022-10-11T09:31:24.970Z,7.80
2022-10-11T09:34:14.693Z,9.30
2022-10-11T09:37:32.960Z,8.00
2022-10-11T09:41:01.631Z,8.10
2022-10-11T09:44:25.644Z,7.60
2022-10-11T09:47:27.596Z,10.20
2022-10-11T09:50:47.117Z,8.30
2022-10-11T09:54:00.540Z,7.30
2022-10-11T09:57:39.209Z,7.70
2022-10-11T10:01:07.866Z,10.50
2022-10-11T10:22:48.115Z,8.00
2022-10-11T10:26:37.125Z,8.60
2022-10-11T10:30:51.238Z,9.30
2022-10-11T10:52:26.286Z,10.20
2022-10-11T10:59:51.560Z,10.30
2022-10-11T11:04:15.756Z,10.30
2022-10-11T11:08:09.005Z,8.90
2022-10-11T11:10:50.176Z,11.70
2022-10-11T11:14:39.688Z,10.70
2022-10-11T11:18:00.768Z,10.80
2022-10-11T11:22:01.535Z,10.80
2022-10-11T11:25:23.646Z,10.80
2022-10-11T11:28:26.280Z,11.10
2022-10-11T11:32:01.890Z,11.20
2022-10-11T11:35:43.462Z,11.20
2022-10-11T11:38:55.367Z,10.60
2022-10-11T11:41:54.534Z,11.40
2022-10-11T11:44:51.888Z,11.50
2022-10-11T11:47:46.050Z,11.60
2022-10-11T11:50:42.014Z,11.70
2022-10-11T11:53:44.524Z,11.70
2022-10-11T11:57:02.477Z,12.00
2022-10-11T12:00:13.345Z,12.10
2022-10-11T12:03:09.393Z,12.40
2022-10-11T12:06:12.790Z,12.20
2022-10-11T12:09:30.963Z,12.20
2022-10-11T12:12:36.167Z,12.30
2022-10-11T12:15:47.434Z,12.20
2022-10-11T12:18:53.803Z,12.40
2022-10-11T12:21:44.098Z,12.50
2022-10-11T12:24:58.810Z,12.70
2022-10-11T12:27:54.753Z,12.70
2022-10-11T12:30:53.872Z,14.70
2022-10-11T12:33:43.855Z,12.80
2022-10-11T12:37:05.907Z,12.90
2022-10-11T12:40:48.622Z,13.00
2022-10-11T12:44:01.038Z,13.00
2022-10-11T12:47:22.887Z,13.10
2022-10-11T12:52:20.229Z,13.30
2022-10-11T12:55:22.523Z,13.40
2022-10-11T13:07:27.388Z,14.10
2022-10-11T13:11:00.935Z,13.80
2022-10-11T13:14:54.280Z,13.80
2022-10-11T13:22:48.071Z,14.30
2022-10-11T13:25:38.091Z,12.10
2022-10-11T13:28:50.415Z,14.00
2022-10-11T13:31:50.835Z,14.30
2022-10-11T13:34:41.807Z,14.10
2022-10-11T13:37:40.076Z,14.20
2022-10-11T13:40:53.875Z,14.40
2022-10-11T13:43:54.696Z,14.40
2022-10-11T13:46:49.316Z,14.40
2022-10-11T13:50:27.206Z,14.40
2022-10-11T14:02:51.909Z,13.50
2022-10-11T14:39:35.347Z,16.40
2022-10-11T14:42:33.371Z,16.50
2022-10-11T14:45:27.275Z,16.50
2022-10-11T14:48:43.195Z,16.40
2022-10-11T14:51:47.658Z,16.20
2022-10-11T14:55:09.729Z,16.00
2022-10-11T14:58:16.941Z,15.80
2022-10-11T15:01:20.789Z,15.70
2022-10-11T15:04:08.795Z,15.60
2022-10-11T15:07:03.193Z,15.40
2022-10-11T15:09:58.229Z,15.20
2022-10-11T15:12:46.101Z,15.00
2022-10-11T15:15:35.514Z,14.90
2022-10-11T15:18:35.674Z,14.70
2022-10-11T15:21:27.591Z,14.60
2022-10-11T15:24:15.686Z,14.40
2022-10-11T15:27:01.751Z,14.20
2022-10-11T15:43:54.545Z,13.50
2022-10-11T15:46:58.889Z,12.10
2022-10-11T15:49:48.943Z,12.80
2022-10-11T15:52:35.076Z,13.10
2022-10-11T15:55:23.517Z,13.00
2022-10-11T15:58:16.655Z,13.00
2022-10-11T16:01:10.002Z,12.90
2022-10-11T16:04:08.014Z,12.80
2022-10-11T16:06:54.361Z,12.90
2022-10-11T16:09:40.344Z,12.90
2022-10-11T16:12:26.395Z,12.90
2022-10-11T16:15:13.696Z,12.90
2022-10-11T16:18:00.314Z,12.90
2022-10-11T16:20:51.183Z,13.50
2022-10-11T16:23:41.708Z,12.70
2022-10-11T16:27:09.135Z,12.60
2022-10-11T16:34:27.085Z,12.30
2022-10-11T16:38:27.496Z,12.10
2022-10-11T16:41:19.396Z,11.90
2022-10-11T16:44:13.180Z,12.00
2022-10-11T16:47:04.826Z,11.90
2022-10-11T17:00:54.132Z,11.40
2022-10-11T17:04:32.346Z,11.50
2022-10-11T17:20:07.811Z,11.20
2022-10-11T17:54:16.484Z,10.40
2022-10-11T17:57:58.629Z,9.70
2022-10-11T18:56:09.601Z,8.30
2022-10-11T18:59:40.745Z,6.80
2022-10-11T19:03:07.632Z,8.10
2022-10-11T19:10:03.812Z,8.00
2022-10-11T19:13:00.517Z,9.40
2022-10-11T19:16:05.339Z,7.80
2022-10-11T19:19:22.886Z,9.90
2022-10-11T19:22:35.596Z,9.00
2022-10-11T19:26:29.634Z,7.70
2022-10-11T19:30:12.290Z,7.50
2022-10-11T19:37:28.129Z,7.20
2022-10-11T19:40:33.782Z,5.60
2022-10-11T19:43:26.275Z,7.60
2022-10-11T19:49:42.389Z,8.60
2022-10-11T19:56:30.075Z,8.60
2022-10-11T20:03:44.200Z,7.00
2022-10-11T20:06:44.271Z,9.40
2022-10-11T20:09:38.624Z,5.90
2022-10-11T20:12:29.219Z,7.00
2022-10-11T20:15:48.382Z,6.90
2022-10-11T20:18:59.514Z,6.80
2022-10-11T20:21:49.627Z,8.10
2022-10-11T20:24:43.533Z,6.80
2022-10-11T20:27:34.973Z,7.70
2022-10-11T20:30:25.788Z,7.60
2022-10-11T20:36:20.679Z,6.70
2022-10-11T20:39:12.554Z,7.30
2022-10-11T20:42:01.751Z,6.60
2022-10-11T20:48:37.034Z,8.10
2022-10-11T20:51:42.149Z,4.90
2022-10-11T20:54:36.062Z,6.50
2022-10-11T20:57:45.571Z,6.30
2022-10-11T21:00:31.754Z,6.50
2022-10-11T21:03:30.628Z,4.90
2022-10-11T21:06:37.483Z,6.00
2022-10-11T21:13:23.964Z,8.50
2022-10-11T21:17:01.256Z,6.70
2022-10-11T21:20:15.538Z,5.60
2022-10-11T21:23:53.376Z,6.40
2022-10-11T21:26:45.544Z,6.30
2022-10-11T21:30:14.432Z,7.80
2022-10-11T21:33:00.925Z,7.70
2022-10-11T21:36:04.559Z,7.60
2022-10-11T21:38:51.616Z,8.30
2022-10-11T21:41:37.861Z,6.10
2022-10-11T21:44:23.894Z,6.10
2022-10-11T21:47:18.208Z,6.10
2022-10-11T21:50:04.963Z,4.70
2022-10-11T21:52:52.554Z,6.10
2022-10-11T21:55:41.789Z,7.30
2022-10-11T21:58:28.457Z,7.90
2022-10-11T22:01:15.429Z,3.90
2022-10-11T22:04:01.580Z,6.00
2022-10-11T22:06:47.646Z,8.20
2022-10-11T22:09:36.466Z,5.90
2022-10-11T22:12:22.626Z,7.00
2022-10-11T22:15:09.021Z,5.90
2022-10-11T22:17:58.463Z,5.90
2022-10-11T22:20:44.980Z,5.90
2022-10-11T22:23:34.192Z,5.10
2022-10-11T22:26:25.611Z,8.30
2022-10-11T22:29:11.458Z,5.80
2022-10-11T22:31:57.509Z,6.70
2022-10-11T22:34:43.442Z,7.20
2022-10-11T22:37:31.433Z,5.80
2022-10-11T22:40:19.617Z,7.20
2022-10-11T22:43:05.802Z,5.80
2022-10-11T22:45:51.892Z,5.70
2022-10-11T22:48:37.950Z,5.70
2022-10-11T22:51:23.862Z,7.40
2022-10-11T22:54:11.915Z,5.70
2022-10-11T22:56:59.609Z,5.70
2022-10-11T22:59:47.775Z,5.70
2022-10-11T23:02:36.625Z,5.60
2022-10-11T23:05:22.953Z,5.70
2022-10-11T23:08:11.625Z,5.60
2022-10-11T23:11:06.655Z,5.70
2022-10-11T23:13:53.150Z,6.00
2022-10-11T23:16:39.035Z,5.60
2022-10-11T23:19:24.974Z,6.20
2022-10-11T23:22:10.999Z,5.60
2022-10-11T23:24:57.089Z,5.60
2022-10-11T23:27:44.992Z,4.70
2022-10-11T23:30:31.505Z,6.20
2022-10-11T23:33:18.901Z,7.30
2022-10-11T23:36:06.023Z,6.60
2022-10-11T23:38:33.780Z,5.60
2022-10-11T23:41:01.493Z,7.10
2022-10-11T23:43:29.058Z,6.70
2022-10-11T23:45:57.325Z,5.40
2022-10-11T23:48:27.261Z,6.20
2022-10-11T23:50:54.728Z,5.30
2022-10-11T23:53:22.457Z,4.00
2022-10-11T23:55:51.898Z,6.90
2022-10-11T23:58:19.494Z,6.90
